Time;durP1;ratioP1;P1;durP2;ratioP2;P2;SDS_P1;SDS_P2;PMS_P1;PMS_P2;Temp;Humidity;BMP_temperature;BMP_pressure;BME280_temperature;BME280_humidity;BME280_pressure;Samples;Min_cycle;Max_cycle;Signal;HPM_P1;HPM_P2
2022/08/20 00:00:47;;;;;;;33.13;29.60;;;;;;;22.08;72.83;100136.70;1772380;80;21012;-76
2022/08/20 00:03:20;;;;;;;31.50;28.25;;;;;;;22.04;72.89;100137.48;1786325;80;21054;-76
2022/08/20 00:05:52;;;;;;;33.08;29.57;;;;;;;21.96;72.86;100130.14;1786555;80;21462;-76
2022/08/20 00:08:21;;;;;;;32.13;28.73;;;;;;;21.92;73.08;100121.20;1787348;80;20996;-76
2022/08/20 00:10:50;;;;;;;32.25;28.85;;;;;;;21.88;73.27;100123.31;1787646;80;21782;-76
2022/08/20 00:13:22;;;;;;;32.80;28.55;;;;;;;21.86;73.40;100131.09;1787482;80;21516;-76
2022/08/20 00:15:50;;;;;;;32.15;28.85;;;;;;;21.82;73.51;100133.20;1787622;80;21488;-76
2022/08/20 00:18:17;;;;;;;34.00;29.02;;;;;;;21.78;73.62;100135.77;1765514;80;21040;-76
2022/08/20 00:20:49;;;;;;;32.85;29.23;;;;;;;21.73;73.70;100130.86;1787522;80;21000;-76
2022/08/20 00:23:17;;;;;;;32.45;29.00;;;;;;;21.69;73.94;100133.42;1765547;80;21771;-76
2022/08/20 00:25:45;;;;;;;34.70;29.87;;;;;;;21.68;74.12;100134.91;1787457;80;21063;-76
2022/08/20 00:28:12;;;;;;;31.25;27.77;;;;;;;21.66;74.31;100151.53;1760447;80;21512;-76
2022/08/20 00:30:42;;;;;;;31.12;27.58;;;;;;;21.65;74.47;100156.52;1767265;80;21071;-76
2022/08/20 00:33:20;;;;;;;32.25;28.73;;;;;;;21.64;74.62;100167.66;1770084;80;21485;-76
2022/08/20 00:35:52;;;;;;;32.10;28.60;;;;;;;21.63;74.72;100176.64;1755098;80;21069;-76
2022/08/20 00:38:20;;;;;;;33.05;28.20;;;;;;;21.64;74.85;100182.32;1764983;81;21035;-76
2022/08/20 00:40:57;;;;;;;33.67;29.72;;;;;;;21.66;74.96;100186.20;1770125;80;20908;-76
2022/08/20 00:43:32;;;;;;;34.03;29.37;;;;;;;21.66;75.07;100183.04;1757694;81;21633;-76
2022/08/20 00:46:10;;;;;;;34.18;30.55;;;;;;;21.69;75.18;100181.93;1755045;81;20972;-85
2022/08/20 00:48:40;;;;;;;35.70;31.15;;;;;;;21.70;75.26;100186.28;1767552;81;22226;-76
2022/08/20 00:51:13;;;;;;;35.43;30.92;;;;;;;21.70;75.29;100186.28;1754853;81;20966;-76
2022/08/20 00:53:42;;;;;;;38.88;31.60;;;;;;;21.72;75.37;100187.00;1765552;81;21508;-76
2022/08/20 00:56:10;;;;;;;35.25;30.65;;;;;;;21.72;75.39;100184.33;1770306;80;20988;-76
2022/08/20 00:58:41;;;;;;;35.68;31.30;;;;;;;21.71;75.50;100176.82;1767626;79;20981;-76
2022/08/20 01:01:09;;;;;;;36.65;31.77;;;;;;;21.74;75.57;100180.55;1752633;81;22161;-76
2022/08/20 01:03:37;;;;;;;38.30;31.07;;;;;;;21.77;75.59;100184.28;1770120;81;21031;-76
2022/08/20 01:06:04;;;;;;;34.90;31.10;;;;;;;21.77;75.62;100179.44;1770082;79;21052;-76
2022/08/20 01:08:31;;;;;;;32.60;29.15;;;;;;;21.78;75.65;100173.98;1749765;80;20986;-76
2022/08/20 01:11:13;;;;;;;33.35;29.52;;;;;;;21.77;75.72;100174.11;1765299;81;21075;-80
2022/08/20 01:13:40;;;;;;;36.28;29.82;;;;;;;21.77;75.86;100174.95;1761796;81;21132;-76
2022/08/20 01:16:15;;;;;;;35.60;30.20;;;;;;;21.79;75.95;100177.00;1768982;81;20984;-76
2022/08/20 01:18:43;;;;;;;33.90;28.70;;;;;;;21.81;76.02;100170.20;1759934;81;21035;-76
2022/08/20 01:21:10;;;;;;;32.85;27.77;;;;;;;21.81;76.03;100168.38;1758542;81;21019;-76
2022/08/20 01:23:43;;;;;;;34.33;27.85;;;;;;;21.80;76.00;100160.00;1760779;81;21015;-76
2022/08/20 01:26:21;;;;;;;30.70;27.30;;;;;;;21.79;75.99;100164.16;1765594;80;21234;-75
2022/08/20 01:28:58;;;;;;;35.03;27.30;;;;;;;21.77;76.09;100162.94;1770174;81;21015;-76
2022/08/20 01:31:30;;;;;;;30.95;26.97;;;;;;;21.75;76.16;100162.72;1770091;79;21007;-76
2022/08/20 01:34:00;;;;;;;30.10;26.20;;;;;;;21.72;76.22;100159.83;1756973;79;20910;-76
2022/08/20 01:36:38;;;;;;;30.52;26.77;;;;;;;21.71;76.30;100162.15;1762792;79;21031;-76
2022/08/20 01:39:09;;;;;;;28.83;25.27;;;;;;;21.70;76.44;100156.94;1763174;79;21917;-76
2022/08/20 01:42:10;;;;;;;29.72;25.82;;;;;;;21.67;76.44;100151.41;1758060;81;21514;-76
2022/08/20 01:44:41;;;;;;;28.50;25.32;;;;;;;21.66;76.49;100142.19;1750319;80;21007;-76
2022/08/20 01:47:16;;;;;;;30.17;26.37;;;;;;;21.60;76.56;100144.41;1746861;81;21015;-76
2022/08/20 01:49:50;;;;;;;30.57;25.80;;;;;;;21.57;76.62;100150.52;1751757;79;21011;-78
2022/08/20 01:52:51;;;;;;;28.17;25.25;;;;;;;21.54;76.72;100156.95;1761193;79;21136;-76
2022/08/20 01:55:18;;;;;;;30.23;24.63;;;;;;;21.52;76.85;100164.73;1760526;79;21086;-76
2022/08/20 01:57:47;;;;;;;28.15;25.00;;;;;;;21.48;76.98;100156.16;1738293;81;21047;-76
2022/08/20 02:00:18;;;;;;;31.05;26.17;;;;;;;21.47;77.14;100154.45;1746858;79;21043;-76
2022/08/20 02:02:45;;;;;;;28.60;25.52;;;;;;;21.45;77.18;100143.09;1746542;79;21019;-76
2022/08/20 02:05:12;;;;;;;27.93;24.55;;;;;;;21.42;77.28;100140.67;1743467;81;21132;-76
2022/08/20 02:07:39;;;;;;;30.95;25.85;;;;;;;21.43;77.40;100144.20;1756214;79;21035;-76
2022/08/20 02:10:11;;;;;;;29.52;24.92;;;;;;;21.39;77.43;100144.94;1740886;81;21054;-76
2022/08/20 02:12:47;;;;;;;26.73;23.87;;;;;;;21.37;77.57;100150.91;1770326;80;21063;-81
2022/08/20 02:15:16;;;;;;;28.30;25.30;;;;;;;21.34;77.59;100151.15;1763165;79;21063;-79
2022/08/20 02:17:43;;;;;;;29.05;24.72;;;;;;;21.33;77.81;100145.44;1769276;81;21048;-77
2022/08/20 02:20:15;;;;;;;28.17;24.23;;;;;;;21.32;77.96;100140.60;1770118;81;21086;-80
2022/08/20 02:22:50;;;;;;;30.80;25.43;;;;;;;21.35;78.15;100140.83;1770420;80;21000;-79
2022/08/20 02:25:21;;;;;;;27.85;23.90;;;;;;;21.35;78.18;100137.67;1741794;79;21051;-78
2022/08/20 02:27:51;;;;;;;26.75;23.85;;;;;;;21.32;78.05;100137.10;1767766;81;21415;-76
2022/08/20 02:30:24;;;;;;;;;;;;;;;21.27;78.00;100130.82;1772982;80;21130;-77
2022/08/20 02:32:51;;;;;;;29.05;25.25;;;;;;;21.25;78.56;100123.93;1739405;80;20455;-76
2022/08/20 02:35:18;;;;;;;28.10;25.00;;;;;;;21.23;78.47;100119.21;1746988;81;21049;-76
2022/08/20 02:37:46;;;;;;;27.17;24.23;;;;;;;21.22;78.44;100121.04;1740991;80;21455;-77
2022/08/20 02:40:17;;;;;;;27.82;24.65;;;;;;;21.23;78.58;100113.42;1749452;81;21515;-77
2022/08/20 02:42:44;;;;;;;29.82;26.42;;;;;;;21.22;78.73;100112.20;1730846;81;21103;-78
2022/08/20 02:45:17;;;;;;;26.82;23.73;;;;;;;21.23;78.80;100104.55;1727973;82;21574;-77
2022/08/20 02:47:45;;;;;;;29.48;25.55;;;;;;;21.21;78.90;100102.53;1742027;82;21397;-82
2022/08/20 02:50:16;;;;;;;27.93;24.55;;;;;;;21.21;78.98;100094.04;1741710;82;21070;-77
2022/08/20 02:52:44;;;;;;;28.85;25.75;;;;;;;21.22;79.09;100103.71;1756705;81;20997;-81
2022/08/20 02:55:12;;;;;;;32.08;27.27;;;;;;;21.21;79.25;100094.53;1735588;82;21133;-77
2022/08/20 02:57:41;;;;;;;31.13;25.87;;;;;;;21.21;79.35;100086.05;1750973;80;21053;-80
2022/08/20 03:00:17;;;;;;;31.70;25.83;;;;;;;21.21;79.50;100068.72;1719288;81;21077;-79
2022/08/20 03:02:44;;;;;;;31.93;25.55;;;;;;;21.21;79.59;100066.05;1757593;81;21054;-77
2022/08/20 03:05:13;;;;;;;27.80;24.32;;;;;;;21.22;79.55;100070.89;1752928;80;21010;-77
2022/08/20 03:07:47;;;;;;;30.82;25.68;;;;;;;21.22;79.58;100072.22;1726055;82;21953;-77
2022/08/20 03:10:15;;;;;;;29.18;26.05;;;;;;;21.22;79.64;100063.73;1727395;81;21091;-77
2022/08/20 03:12:42;;;;;;;29.52;25.50;;;;;;;21.19;79.63;100058.67;1735191;82;21062;-76
2022/08/20 03:15:10;;;;;;;30.25;26.57;;;;;;;21.17;79.80;100056.62;1741460;81;21459;-76
2022/08/20 03:17:37;;;;;;;30.92;25.85;;;;;;;21.19;79.99;100059.17;1742026;82;21113;-76
2022/08/20 03:20:07;;;;;;;28.90;25.05;;;;;;;21.20;80.08;100061.71;1745468;81;21169;-76
2022/08/20 03:22:34;;;;;;;29.27;24.45;;;;;;;21.20;80.14;100064.37;1731619;82;21033;-76
2022/08/20 03:25:02;;;;;;;29.48;25.90;;;;;;;21.22;80.24;100063.73;1730679;81;21017;-77
2022/08/20 03:27:29;;;;;;;28.55;25.55;;;;;;;21.23;80.27;100061.91;1729360;82;21562;-77
2022/08/20 03:29:56;;;;;;;26.97;24.05;;;;;;;21.24;80.32;100060.95;1704491;83;21125;-76
2022/08/20 03:32:23;;;;;;;26.50;23.57;;;;;;;21.23;80.34;100057.91;1742079;79;21222;-77
2022/08/20 03:34:50;;;;;;;29.02;25.52;;;;;;;21.24;80.45;100055.13;1772034;80;21492;-77
2022/08/20 03:37:17;;;;;;;27.75;24.75;;;;;;;21.26;80.51;100047.84;1784977;78;21002;-76
2022/08/20 03:39:44;;;;;;;27.25;24.32;;;;;;;21.26;80.45;100037.19;1771804;80;21031;-77
2022/08/20 03:42:12;;;;;;;28.30;25.30;;;;;;;21.24;80.37;100036.96;1783797;80;21023;-77
2022/08/20 03:44:39;;;;;;;28.47;23.87;;;;;;;21.23;80.49;100046.78;1785805;80;22008;-76
2022/08/20 03:47:08;;;;;;;29.25;25.75;;;;;;;21.24;80.61;100054.28;1771736;80;21062;-76
2022/08/20 03:49:35;;;;;;;29.23;25.57;;;;;;;21.23;80.54;100060.58;1775249;80;21012;-76
2022/08/20 03:52:05;;;;;;;28.70;24.98;;;;;;;21.22;80.56;100057.07;1781345;80;21119;-76
2022/08/20 03:54:32;;;;;;;28.25;25.15;;;;;;;21.21;80.66;100055.89;1787231;80;21689;-76
2022/08/20 03:57:01;;;;;;;27.15;23.42;;;;;;;21.20;80.76;100060.38;1755391;81;21072;-76
2022/08/20 03:59:33;;;;;;;29.23;24.77;;;;;;;21.20;80.75;100063.51;1741379;82;21099;-76
2022/08/20 04:02:00;;;;;;;27.10;24.12;;;;;;;21.19;80.82;100065.34;1741567;82;21126;-77
2022/08/20 04:04:39;;;;;;;26.97;23.83;;;;;;;21.16;80.77;100062.45;1734601;82;21534;-78
2022/08/20 04:07:13;;;;;;;28.20;24.65;;;;;;;21.14;80.70;100063.55;1733039;80;21047;-78
2022/08/20 04:09:42;;;;;;;26.68;23.85;;;;;;;21.11;80.90;100059.33;1742353;80;21539;-78
2022/08/20 04:12:12;;;;;;;26.15;23.40;;;;;;;21.13;81.05;100068.54;1741998;82;20996;-77
2022/08/20 04:14:39;;;;;;;25.75;22.48;;;;;;;21.13;81.12;100083.20;1742379;82;21062;-78
2022/08/20 04:17:10;;;;;;;26.10;23.30;;;;;;;21.12;81.11;100084.19;1743086;82;21555;-78
2022/08/20 04:19:38;;;;;;;26.05;22.42;;;;;;;21.08;81.09;100088.08;1742749;81;21410;-78
2022/08/20 04:22:06;;;;;;;26.62;23.67;;;;;;;21.08;81.29;100094.73;1790532;80;21133;-78
2022/08/20 04:24:36;;;;;;;25.27;22.32;;;;;;;21.06;81.25;100096.22;1790192;80;21026;-78
2022/08/20 04:27:04;;;;;;;25.25;22.50;;;;;;;21.04;81.28;100097.32;1755426;80;21010;-78
2022/08/20 04:29:32;;;;;;;27.32;24.05;;;;;;;21.02;81.42;100097.44;1742174;82;21513;-78
2022/08/20 04:32:01;;;;;;;26.97;22.80;;;;;;;21.03;81.61;100096.45;1739381;80;21053;-78
2022/08/20 04:34:29;;;;;;;24.82;22.32;;;;;;;21.03;81.79;100093.78;1761628;80;21105;-78
2022/08/20 04:36:56;;;;;;;25.77;22.50;;;;;;;21.05;81.92;100101.17;1773454;80;21023;-78
2022/08/20 04:39:23;;;;;;;28.10;24.30;;;;;;;21.06;82.00;100099.34;1762326;80;21000;-78
2022/08/20 04:41:50;;;;;;;28.55;24.52;;;;;;;21.07;82.10;100104.55;1792242;80;21592;-78
2022/08/20 04:44:18;;;;;;;26.23;23.40;;;;;;;21.09;82.17;100104.41;1791916;80;20979;-78
2022/08/20 04:46:44;;;;;;;28.87;24.92;;;;;;;21.11;82.29;100109.97;1792076;80;21087;-78
2022/08/20 04:49:11;;;;;;;33.20;25.23;;;;;;;21.13;82.30;100109.84;1791782;80;21101;-78
2022/08/20 04:51:38;;;;;;;29.05;24.37;;;;;;;21.15;82.49;100107.41;1792235;80;20947;-78
2022/08/20 04:54:05;;;;;;;31.75;26.37;;;;;;;21.18;82.49;100115.63;1785049;80;21007;-84
2022/08/20 04:56:38;;;;;;;31.82;26.07;;;;;;;21.20;82.55;100111.02;1760943;81;21151;-79
2022/08/20 04:59:06;;;;;;;32.40;27.10;;;;;;;21.22;82.61;100110.88;1744597;81;21136;-89
2022/08/20 05:01:34;;;;;;;28.12;24.85;;;;;;;21.24;82.77;100118.25;1759122;81;20989;-88
2022/08/20 05:04:02;;;;;;;29.63;25.57;;;;;;;21.27;82.70;100128.16;1747387;81;21048;-89
2022/08/20 05:06:31;;;;;;;29.72;25.55;;;;;;;21.29;82.61;100128.87;1757650;81;21008;-87
2022/08/20 05:09:00;;;;;;;31.75;26.40;;;;;;;21.32;82.66;100126.44;1753778;81;21004;-78
2022/08/20 05:11:28;;;;;;;28.73;25.43;;;;;;;21.33;82.64;100130.78;1749959;81;21112;-87
2022/08/20 05:13:55;;;;;;;29.42;26.23;;;;;;;21.32;82.69;100137.94;1756106;81;22204;-84
2022/08/20 05:16:23;;;;;;;30.88;26.20;;;;;;;21.35;82.79;100143.00;1750758;81;21043;-86
2022/08/20 05:18:50;;;;;;;30.05;26.37;;;;;;;21.37;82.75;100149.58;1750201;80;21118;-88
2022/08/20 05:21:18;;;;;;;30.60;25.62;;;;;;;21.39;82.76;100152.94;1749321;81;21055;-85
2022/08/20 05:23:47;;;;;;;31.23;26.17;;;;;;;21.39;82.69;100155.60;1724784;81;21290;-85
2022/08/20 05:26:15;;;;;;;29.15;24.70;;;;;;;21.41;82.76;100166.15;1750566;81;21036;-84
2022/08/20 05:28:55;;;;;;;29.18;23.98;;;;;;;21.42;82.82;100164.66;1749354;81;21063;-81
2022/08/20 05:31:22;;;;;;;30.88;25.92;;;;;;;21.45;82.84;100164.43;1749867;81;21032;-79
2022/08/20 05:33:50;;;;;;;29.45;24.85;;;;;;;21.46;82.85;100158.11;1748588;81;21063;-84
2022/08/20 05:36:19;;;;;;;30.57;25.35;;;;;;;21.48;82.87;100154.83;1757104;81;21127;-84
2022/08/20 05:38:49;;;;;;;32.08;26.00;;;;;;;21.50;82.94;100154.67;1755888;80;21476;-85
2022/08/20 05:41:16;;;;;;;30.37;25.55;;;;;;;21.52;82.91;100164.73;1757789;81;21493;-87
2022/08/20 05:43:44;;;;;;;27.27;23.10;;;;;;;21.54;82.97;100160.12;1759353;80;21043;-84
2022/08/20 05:46:12;;;;;;;28.12;25.10;;;;;;;21.57;83.04;100162.02;1755753;81;21062;-79
2022/08/20 05:48:39;;;;;;;31.27;25.02;;;;;;;21.60;82.89;100168.42;1755937;81;21525;-84
2022/08/20 05:51:07;;;;;;;29.90;24.95;;;;;;;21.62;82.82;100173.63;1753288;81;21025;-84
2022/08/20 05:53:33;;;;;;;29.87;24.43;;;;;;;21.65;82.87;100176.52;1754129;81;21087;-88
2022/08/20 05:56:00;;;;;;;27.52;24.18;;;;;;;21.69;82.83;100178.77;1755376;81;21094;-82
2022/08/20 05:58:32;;;;;;;27.95;24.87;;;;;;;21.71;82.85;100171.98;1755057;81;22461;-88
2022/08/20 06:00:57;;;;;;;27.73;24.53;;;;;;;21.73;82.81;100171.37;1755251;81;21779;-87
2022/08/20 06:06:11;;;;;;;29.48;24.50;;;;;;;21.79;82.92;100161.48;1752917;81;21062;-88
2022/08/20 06:08:38;;;;;;;28.87;25.17;;;;;;;21.86;82.97;100162.62;1759896;81;21019;-88
2022/08/20 06:11:05;;;;;;;28.50;25.43;;;;;;;21.91;82.84;100161.73;1758957;81;21653;-83
2022/08/20 06:13:34;;;;;;;27.20;24.30;;;;;;;21.96;82.85;100168.84;1755953;81;22604;-84
2022/08/20 06:16:01;;;;;;;25.77;23.07;;;;;;;22.03;82.78;100171.33;1752722;81;21066;-87
2022/08/20 06:18:28;;;;;;;29.55;25.97;;;;;;;22.09;82.67;100164.60;1757170;80;21472;-89
2022/08/20 06:20:56;;;;;;;28.07;24.82;;;;;;;22.14;82.62;100165.05;1754707;80;21052;-87
2022/08/20 06:23:24;;;;;;;29.90;24.25;;;;;;;22.19;82.58;100162.81;1755761;81;21648;-88
2022/08/20 06:25:51;;;;;;;28.02;24.50;;;;;;;22.26;82.52;100167.97;1755535;81;21178;-83
2022/08/20 06:28:18;;;;;;;28.85;25.77;;;;;;;22.32;82.45;100157.23;1758954;81;21282;-82
2022/08/20 06:30:45;;;;;;;30.92;25.12;;;;;;;22.38;82.38;100150.48;1756116;80;21127;-88
2022/08/20 06:33:13;;;;;;;27.62;23.92;;;;;;;22.45;82.23;100151.63;1749022;80;21051;-86
2022/08/20 06:35:41;;;;;;;27.13;24.10;;;;;;;22.51;82.16;100143.05;1733507;82;21365;-83
2022/08/20 06:38:11;;;;;;;28.35;24.72;;;;;;;22.56;82.08;100135.94;1753791;80;22011;-85
2022/08/20 06:40:38;;;;;;;25.92;23.10;;;;;;;22.62;81.90;100133.56;1752770;81;21035;-82
2022/08/20 06:43:07;;;;;;;26.80;24.07;;;;;;;22.67;81.81;100123.80;1751979;81;21048;-84
2022/08/20 06:45:36;;;;;;;25.43;22.80;;;;;;;22.73;81.89;100119.22;1755199;81;21047;-84
2022/08/20 06:48:08;;;;;;;27.48;24.57;;;;;;;22.75;81.73;100119.90;1753676;81;21500;-87
2022/08/20 06:50:40;;;;;;;27.02;24.15;;;;;;;22.85;81.60;100131.42;1753029;81;21184;-88
2022/08/20 06:53:15;;;;;;;26.45;23.83;;;;;;;22.90;81.48;100129.67;1740842;81;21024;-84
2022/08/20 06:55:46;;;;;;;24.50;21.68;;;;;;;22.94;81.31;100131.06;1750801;81;21348;-86
2022/08/20 06:58:13;;;;;;;24.12;21.62;;;;;;;22.98;81.19;100129.00;1753520;81;21055;-85
2022/08/20 07:00:42;;;;;;;25.37;22.65;;;;;;;23.00;81.09;100127.88;1753866;81;21047;-86
2022/08/20 07:03:12;;;;;;;23.10;20.40;;;;;;;23.05;80.92;100128.76;1751750;81;27762;-86
2022/08/20 07:05:42;;;;;;;23.47;21.15;;;;;;;23.10;80.91;100129.17;1750252;81;29246;-87
2022/08/20 07:08:13;;;;;;;22.90;20.48;;;;;;;23.16;80.82;100126.75;1752602;81;21066;-86
2022/08/20 07:10:45;;;;;;;23.25;20.65;;;;;;;23.24;80.66;100126.54;1753510;81;21087;-89
2022/08/20 07:13:20;;;;;;;23.35;20.97;;;;;;;23.32;80.65;100133.34;1751999;80;21054;-78
2022/08/20 07:15:48;;;;;;;22.52;20.27;;;;;;;23.36;80.21;100136.05;1709206;82;21846;-88
2022/08/20 07:18:15;;;;;;;24.00;21.50;;;;;;;23.40;80.03;100133.95;1755357;81;21027;-85
2022/08/20 07:20:43;;;;;;;23.60;21.30;;;;;;;23.43;79.84;100133.16;1755229;81;21827;-81
2022/08/20 07:23:10;;;;;;;24.05;21.65;;;;;;;23.48;79.63;100133.57;1753348;81;21078;-84
2022/08/20 07:25:42;;;;;;;23.65;21.25;;;;;;;23.52;79.42;100130.09;1755411;81;21071;-86
2022/08/20 07:28:17;;;;;;;23.55;21.30;;;;;;;23.58;79.25;100129.50;1761293;81;21126;-88
2022/08/20 07:33:32;;;;;;;22.52;20.17;;;;;;;23.69;79.12;100134.66;1752475;80;21051;-88
2022/08/20 07:36:03;;;;;;;23.35;20.97;;;;;;;23.75;78.95;100144.83;1762574;81;21082;-84
2022/08/20 07:38:32;;;;;;;22.40;20.20;;;;;;;23.79;78.74;100138.17;1754610;81;21083;-86
2022/08/20 07:41:07;;;;;;;21.60;19.40;;;;;;;23.81;78.56;100140.72;1754017;81;21359;-81
2022/08/20 07:43:34;;;;;;;22.07;19.92;;;;;;;23.89;78.65;100146.17;1754329;81;21106;-87
2022/08/20 07:46:06;;;;;;;22.05;19.80;;;;;;;23.97;78.43;100143.59;1758361;80;22557;-90
2022/08/20 07:48:32;;;;;;;22.98;20.68;;;;;;;24.03;78.13;100142.98;1751573;80;21063;-91
2022/08/20 07:51:03;;;;;;;22.20;19.52;;;;;;;24.07;77.83;100137.33;1750636;81;21023;-86
2022/08/20 07:53:34;;;;;;;21.50;19.35;;;;;;;24.14;77.80;100137.92;1753361;81;21044;-88
2022/08/20 07:56:04;;;;;;;23.10;20.80;;;;;;;24.22;77.77;100127.30;1751643;80;21569;-88
2022/08/20 07:58:34;;;;;;;21.87;19.67;;;;;;;24.34;77.49;100137.79;1758190;81;21098;-82
2022/08/20 08:01:01;;;;;;;;;;;;;;;24.45;77.45;100137.59;1760127;81;21040;-81
2022/08/20 08:03:28;;;;;;;20.85;18.75;;;;;;;24.52;76.95;100136.48;1752394;81;20620;-86
2022/08/20 08:05:57;;;;;;;21.80;19.62;;;;;;;24.55;76.71;100138.34;1752340;81;21177;-83
2022/08/20 08:08:27;;;;;;;21.55;19.50;;;;;;;24.57;76.61;100144.40;1750434;81;21051;-80
2022/08/20 08:11:01;;;;;;;21.65;19.05;;;;;;;24.63;76.55;100141.59;1758044;81;21110;-82
2022/08/20 08:13:36;;;;;;;21.87;19.67;;;;;;;24.70;76.31;100135.98;1754584;81;21110;-83
2022/08/20 08:16:07;;;;;;;22.60;20.37;;;;;;;24.80;76.04;100123.31;1760656;81;22422;-81
2022/08/20 08:18:42;;;;;;;22.13;20.02;;;;;;;24.90;75.71;100124.07;1756175;81;21316;-83
2022/08/20 08:21:11;;;;;;;22.32;20.23;;;;;;;24.99;75.55;100134.86;1757461;81;20932;-84
2022/08/20 08:23:43;;;;;;;21.17;19.07;;;;;;;25.06;75.20;100136.77;1752747;81;22289;-83
2022/08/20 08:26:15;;;;;;;22.13;19.90;;;;;;;25.09;74.79;100131.59;1761698;81;22188;-84
2022/08/20 08:28:45;;;;;;;20.92;18.82;;;;;;;25.13;74.51;100136.97;1756723;80;21099;-84
2022/08/20 08:31:13;;;;;;;22.15;19.92;;;;;;;25.13;74.13;100131.09;1761034;81;21094;-84
2022/08/20 08:33:41;;;;;;;22.60;20.35;;;;;;;25.10;73.65;100130.58;1751848;80;21040;-82
2022/08/20 08:36:11;;;;;;;22.22;19.95;;;;;;;25.07;73.81;100133.58;1756884;81;21071;-84
2022/08/20 08:38:43;;;;;;;22.05;19.87;;;;;;;25.11;73.89;100129.59;1784432;80;21617;-84
2022/08/20 08:41:28;;;;;;;22.93;20.45;;;;;;;25.11;73.91;100126.41;1761185;79;21062;-82
2022/08/20 08:44:03;;;;;;;23.85;19.98;;;;;;;25.14;73.78;100130.62;1756296;79;21185;-81
2022/08/20 08:46:34;;;;;;;22.27;19.65;;;;;;;25.19;73.76;100128.34;1736590;81;20963;-84
2022/08/20 08:49:01;;;;;;;21.73;19.62;;;;;;;25.20;73.43;100132.70;1760503;81;21047;-80
2022/08/20 08:51:40;;;;;;;23.30;20.85;;;;;;;25.20;73.31;100125.98;1758924;79;21102;-80
2022/08/20 08:54:09;;;;;;;21.23;19.20;;;;;;;25.22;73.02;100129.36;1756992;79;22621;-84
2022/08/20 08:56:36;;;;;;;21.93;19.65;;;;;;;25.22;72.68;100123.13;1757295;81;21108;-84
2022/08/20 08:59:09;;;;;;;21.10;19.07;;;;;;;25.25;72.72;100133.58;1766750;80;21584;-77
2022/08/20 09:01:47;;;;;;;20.10;18.15;;;;;;;25.28;72.58;100138.63;1738642;79;21514;-77
2022/08/20 09:04:17;;;;;;;21.68;19.57;;;;;;;25.29;72.54;100143.81;1736926;81;21082;-78
2022/08/20 09:06:46;;;;;;;20.72;18.62;;;;;;;25.31;72.45;100148.52;1763871;79;21028;-78
2022/08/20 09:09:21;;;;;;;20.55;18.55;;;;;;;25.33;72.39;100151.03;1766815;81;21108;-78
2022/08/20 09:11:53;;;;;;;21.75;19.30;;;;;;;25.37;72.38;100153.75;1774276;80;21019;-78
2022/08/20 09:14:23;;;;;;;23.10;20.80;;;;;;;25.46;72.36;100152.79;1752696;80;21585;-78
2022/08/20 09:16:51;;;;;;;23.20;20.90;;;;;;;25.55;71.88;100136.23;1752508;80;20971;-78
2022/08/20 09:19:18;;;;;;;21.85;19.55;;;;;;;25.65;71.91;100130.76;1752710;80;21488;-80
2022/08/20 09:21:45;;;;;;;23.47;21.07;;;;;;;25.74;71.75;100140.52;1752324;80;22194;-78
2022/08/20 09:24:12;;;;;;;23.85;21.40;;;;;;;25.81;71.42;100141.06;1760178;80;21028;-79
2022/08/20 09:26:39;;;;;;;23.32;20.15;;;;;;;25.89;71.04;100144.31;1785034;80;21098;-82
2022/08/20 09:29:07;;;;;;;22.70;20.40;;;;;;;25.95;70.92;100147.69;1763463;80;21608;-78
2022/08/20 09:31:34;;;;;;;24.72;22.25;;;;;;;26.04;70.77;100143.18;1785117;80;21671;-78
2022/08/20 09:34:01;;;;;;;23.22;20.88;;;;;;;26.13;70.69;100142.70;1773388;79;21833;-78
2022/08/20 09:36:28;;;;;;;24.55;22.05;;;;;;;26.18;70.14;100147.08;1757731;79;21639;-77
2022/08/20 09:38:55;;;;;;;24.02;21.52;;;;;;;26.18;69.88;100147.08;1745823;81;20992;-77
2022/08/20 09:41:23;;;;;;;23.05;20.88;;;;;;;26.16;69.52;100148.61;1770074;80;20904;-77
2022/08/20 09:43:50;;;;;;;24.12;21.60;;;;;;;26.14;69.37;100147.92;1770283;81;21058;-77
2022/08/20 09:46:17;;;;;;;24.45;21.87;;;;;;;26.14;69.40;100149.27;1762867;79;21126;-78
2022/08/20 09:48:44;;;;;;;23.87;21.57;;;;;;;26.13;69.05;100141.35;1747877;79;21283;-77
2022/08/20 09:51:11;;;;;;;24.12;21.82;;;;;;;26.11;69.01;100146.08;1770017;80;21070;-77
2022/08/20 09:53:38;;;;;;;25.97;23.30;;;;;;;26.06;68.87;100151.09;1770332;81;21039;-78
2022/08/20 09:56:07;;;;;;;24.15;21.57;;;;;;;25.96;68.51;100152.55;1745913;79;21512;-77
2022/08/20 09:58:39;;;;;;;23.40;21.27;;;;;;;25.86;68.56;100151.86;1739819;81;21213;-78
2022/08/20 10:01:13;;;;;;;27.58;22.30;;;;;;;25.81;68.61;100150.97;1752092;79;21559;-77
2022/08/20 10:03:50;;;;;;;24.15;21.87;;;;;;;25.74;68.55;100151.25;1758176;81;21086;-78
2022/08/20 10:06:18;;;;;;;23.55;21.37;;;;;;;25.70;68.63;100151.25;1761419;80;21055;-81
2022/08/20 10:08:46;;;;;;;23.73;21.35;;;;;;;25.67;68.66;100156.44;1746711;79;21114;-77
2022/08/20 10:11:13;;;;;;;23.15;20.72;;;;;;;25.66;68.66;100153.39;1752745;81;21109;-78
2022/08/20 10:13:41;;;;;;;23.42;21.07;;;;;;;25.65;68.76;100154.91;1770290;80;20952;-77
2022/08/20 10:16:08;;;;;;;23.83;21.60;;;;;;;25.68;68.95;100150.56;1770000;80;21011;-78
2022/08/20 10:18:36;;;;;;;24.12;21.75;;;;;;;25.72;68.97;100147.91;1770281;80;21063;-77
2022/08/20 10:21:05;;;;;;;25.50;23.10;;;;;;;25.80;69.09;100147.44;1748382;79;21054;-77
2022/08/20 10:23:32;;;;;;;25.00;22.62;;;;;;;25.95;69.13;100158.43;1750531;81;21130;-82
2022/08/20 10:25:59;;;;;;;27.10;24.37;;;;;;;26.14;68.97;100155.98;1769912;81;21007;-77
2022/08/20 10:28:26;;;;;;;28.02;25.05;;;;;;;26.25;68.59;100152.98;1770080;81;21028;-78
2022/08/20 10:30:53;;;;;;;28.12;25.27;;;;;;;26.36;68.39;100155.87;1743273;79;21007;-77
2022/08/20 10:33:20;;;;;;;27.65;24.87;;;;;;;26.41;67.96;100149.50;1753286;81;21035;-77
2022/08/20 10:35:47;;;;;;;27.32;24.63;;;;;;;26.47;67.66;100149.34;1741542;81;21142;-77
2022/08/20 10:38:14;;;;;;;28.05;25.27;;;;;;;26.53;67.58;100155.42;1755181;81;21060;-77
2022/08/20 10:40:41;;;;;;;27.13;24.63;;;;;;;26.56;67.39;100151.56;1764137;80;21405;-77
2022/08/20 10:43:09;;;;;;;25.30;22.90;;;;;;;26.63;67.34;100156.59;1770205;80;21031;-77
2022/08/20 10:45:36;;;;;;;26.42;23.75;;;;;;;26.72;67.15;100149.39;1765071;80;22430;-77
2022/08/20 10:48:03;;;;;;;27.00;24.20;;;;;;;26.85;66.97;100152.39;1756483;79;21943;-76
2022/08/20 10:50:30;;;;;;;27.52;24.70;;;;;;;26.94;66.88;100150.06;1739210;81;21020;-76
2022/08/20 10:52:57;;;;;;;26.05;23.40;;;;;;;27.07;66.76;100142.29;1738317;79;21004;-77
2022/08/20 10:55:24;;;;;;;26.68;23.45;;;;;;;27.18;66.28;100149.20;1740794;79;21058;-77
2022/08/20 10:57:51;;;;;;;25.82;23.22;;;;;;;27.19;65.78;100144.66;1753609;81;21492;-84
2022/08/20 11:00:19;;;;;;;27.22;24.72;;;;;;;27.14;65.55;100143.30;1738982;81;21758;-77
2022/08/20 11:02:46;;;;;;;26.70;23.77;;;;;;;27.15;65.45;100142.80;1744998;79;21059;-77
2022/08/20 11:05:14;;;;;;;25.43;22.98;;;;;;;27.15;65.41;100141.45;1738888;81;21508;-77
2022/08/20 11:07:43;;;;;;;25.65;22.98;;;;;;;27.17;65.43;100135.43;1741270;79;21106;-76
2022/08/20 11:10:10;;;;;;;;;;;;;;;27.19;65.24;100139.28;1750531;79;21023;-79
2022/08/20 11:12:37;;;;;;;24.77;22.15;;;;;;;27.19;64.57;100141.48;1744817;81;20606;-77
2022/08/20 11:15:06;;;;;;;24.77;22.37;;;;;;;27.12;64.65;100138.59;1738692;81;21086;-77
2022/08/20 11:17:35;;;;;;;25.85;22.93;;;;;;;27.09;64.35;100144.83;1758791;81;21504;-77
2022/08/20 11:20:06;;;;;;;25.52;23.12;;;;;;;27.02;64.29;100147.84;1744000;79;21067;-79
2022/08/20 11:22:34;;;;;;;28.07;23.98;;;;;;;26.94;64.13;100147.38;1756849;81;21344;-77
2022/08/20 11:25:03;;;;;;;27.10;24.60;;;;;;;26.88;64.03;100144.85;1770268;81;21033;-85